ADDS METAR Data INFO
IDs: Format: Raw Decoded Include TAF

Data at: 0643 UTC 23 Feb 2018

KFUL 230553Z AUTO 00000KT 10SM FEW040 11/05 A3019 RMK AO2 SLP222 T01110050 10156 20111 53006
KFUL 230453Z AUTO 29004KT 10SM BKN041 BKN050 12/05 A3018 RMK AO2 SLP219 T01220050
KFUL 230353Z AUTO 00000KT 10SM BKN038 OVC049 13/05 A3017 RMK AO2 SLP215 T01280050
KFUL 230253Z AUTO 00000KT 10SM CLR 12/04 A3017 RMK AO2 SLP216 T01220044 53006
KFUL 230153Z VRB04KT 10SM CLR 13/04 A3016 RMK AO2 SLP213 T01280044
KFUL 230053Z 27007KT 10SM FEW048 14/03 A3015 RMK AO2 SLP210 T01440028
KFUL 222353Z 21010G15KT 10SM FEW060 16/04 A3015 RMK AO2 SLP210 T01560039 10172 20139 56013
KFUL 222253Z 22007G15KT 10SM FEW055 17/04 A3016 RMK AO2 SLP213 T01670039
KFUL 222153Z 22007KT 190V250 10SM FEW070 17/04 A3017 RMK AO2 SLP215 T01670039
KFUL 222053Z 22008KT 190V270 10SM BKN042 BKN055 BKN070 17/05 A3019 RMK AO2 SLP223 T01670050 58017
KFUL 221953Z VRB05KT 10SM BKN038 BKN045 BKN050 14/05 A3021 RMK AO2 SLP231 T01440050
KFUL 221853Z VRB04KT 10SM SCT039 SCT045 BKN060 16/04 A3023 RMK AO2 SLP237 T01560044
KFUL 221753Z VRB04KT 10SM CLR 14/05 A3024 RMK AO2 SLP240 T01390050 10139 20061 51012
KFUL 221653Z 09007KT 10SM SCT039 12/03 A3024 RMK AO2 SLP240 T01170028
KFUL 221553Z 09007KT 10SM FEW035 FEW043 09/02 A3022 RMK AO2 SLP233 T00940022
KFUL 221453Z 09007KT 10SM BKN032 BKN044 OVC060 07/02 A3021 RMK AO2 SLP229 T00720017 53008
KFUL 221353Z AUTO 09006KT 10SM SCT039 07/01 A3019 RMK AO2 SLP223 T00670011
KFUL 221253Z AUTO 09006KT 10SM OVC035 07/01 A3018 RMK AO2 SLP220 T00670006
KFUL 221153Z AUTO 10004KT 10SM CLR 06/00 A3018 RMK AO2 SLP220 T00610000 10094 20056 53001
KFUL 221053Z AUTO 10003KT 10SM CLR 06/00 A3017 RMK AO2 SLP216 T00610000
KFUL 220953Z AUTO 08004KT 10SM CLR 06/00 A3018 RMK AO2 SLP219 T00610000
KFUL 220853Z AUTO 09003KT 10SM CLR 07/00 A3018 RMK AO2 SLP219 T00670000 53007
KFUL 220753Z AUTO 08004KT 10SM CLR 07/00 A3017 RMK AO2 SLP216 T00720000 401610061
KFUL 220653Z AUTO 07004KT 10SM CLR 08/01 A3017 RMK AO2 SLP216 T00830006
KFUL 220553Z AUTO 09004KT 10SM CLR 09/01 A3016 RMK AO2 SLP213 T00890006 10156 20089 51009
KFUL 220453Z AUTO 00000KT 10SM CLR 09/01 A3015 RMK AO2 SLP210 T00940011
KFUL 220353Z 00000KT 10SM CLR 11/00 A3014 RMK AO2 SLP207 T01110000
KFUL 212353Z 19008KT 10SM FEW075 SCT100 16/M03 A3009 RMK AO2 SLP191 T01561033 10161 20128 56005
KFUL 212253Z VRB06KT 10SM BKN080 BKN100 15/M02 A3010 RMK AO2 SLP191 T01501022
KFUL 212153Z 24003KT 10SM FEW070 BKN095 15/00 A3010 RMK AO2 SLP191 T01500000
KFUL 212130Z 24003KT 10SM SCT060 BKN080 OVC090 14/01 A3010 RMK AO2 T01440006
KFUL 212053Z VRB04KT 10SM CLR 16/01 A3011 RMK AO2 SLP195 T01560006 58012
KFUL 211953Z 19006KT 10SM FEW055 14/00 A3012 RMK AO2 SLP199 T01390000
KFUL 211853Z 20004KT 10SM CLR 14/01 A3014 RMK AO2 SLP207 T01440006